sensor_id;sensor_type;location;lat;lon;timestamp;temperature;humidity
12452;DHT22;6291;48.924;12.204;2023-03-31T00:03:03;6.80;99.90
12452;DHT22;6291;48.924;12.204;2023-03-31T00:08:11;6.70;99.90
12452;DHT22;6291;48.924;12.204;2023-03-31T00:13:16;8.20;99.90
12452;DHT22;6291;48.924;12.204;2023-03-31T00:18:20;7.40;99.90
12452;DHT22;6291;48.924;12.204;2023-03-31T00:23:23;6.60;99.90
12452;DHT22;6291;48.924;12.204;2023-03-31T00:28:31;6.40;99.90
12452;DHT22;6291;48.924;12.204;2023-03-31T00:33:34;6.00;99.90
12452;DHT22;6291;48.924;12.204;2023-03-31T00:38:38;6.10;99.90
12452;DHT22;6291;48.924;12.204;2023-03-31T00:44:08;6.10;99.90
12452;DHT22;6291;48.924;12.204;2023-03-31T00:49:20;5.80;99.90
12452;DHT22;6291;48.924;12.204;2023-03-31T00:54:26;5.80;99.90
12452;DHT22;6291;48.924;12.204;2023-03-31T00:59:34;5.70;99.90
12452;DHT22;6291;48.924;12.204;2023-03-31T01:04:43;5.70;99.90
12452;DHT22;6291;48.924;12.204;2023-03-31T01:09:49;7.10;99.90
12452;DHT22;6291;48.924;12.204;2023-03-31T01:14:56;7.90;99.90
12452;DHT22;6291;48.924;12.204;2023-03-31T01:20:08;5.90;99.90
12452;DHT22;6291;48.924;12.204;2023-03-31T01:25:54;5.40;99.90
12452;DHT22;6291;48.924;12.204;2023-03-31T01:31:32;5.60;99.90
12452;DHT22;6291;48.924;12.204;2023-03-31T01:37:21;6.30;99.90
12452;DHT22;6291;48.924;12.204;2023-03-31T01:42:35;5.80;99.90
12452;DHT22;6291;48.924;12.204;2023-03-31T01:47:44;7.90;99.90
12452;DHT22;6291;48.924;12.204;2023-03-31T01:52:55;5.70;99.90
12452;DHT22;6291;48.924;12.204;2023-03-31T01:58:04;7.00;99.90
12452;DHT22;6291;48.924;12.204;2023-03-31T02:03:14;6.00;99.90
12452;DHT22;6291;48.924;12.204;2023-03-31T02:08:21;7.80;99.90
12452;DHT22;6291;48.924;12.204;2023-03-31T02:13:28;6.30;99.90
12452;DHT22;6291;48.924;12.204;2023-03-31T02:18:33;7.20;99.90
12452;DHT22;6291;48.924;12.204;2023-03-31T02:23:39;6.40;99.90
12452;DHT22;6291;48.924;12.204;2023-03-31T02:28:44;6.30;99.90
12452;DHT22;6291;48.924;12.204;2023-03-31T02:33:48;6.40;99.90
12452;DHT22;6291;48.924;12.204;2023-03-31T02:38:54;7.20;99.90
12452;DHT22;6291;48.924;12.204;2023-03-31T02:44:03;7.40;99.90
12452;DHT22;6291;48.924;12.204;2023-03-31T02:49:08;6.70;99.90
12452;DHT22;6291;48.924;12.204;2023-03-31T02:59:50;6.50;99.90
12452;DHT22;6291;48.924;12.204;2023-03-31T03:05:11;6.40;99.90
12452;DHT22;6291;48.924;12.204;2023-03-31T03:10:48;6.60;99.90
12452;DHT22;6291;48.924;12.204;2023-03-31T03:15:59;7.60;99.90
12452;DHT22;6291;48.924;12.204;2023-03-31T03:21:04;6.80;99.90
12452;DHT22;6291;48.924;12.204;2023-03-31T03:26:08;6.50;99.90
12452;DHT22;6291;48.924;12.204;2023-03-31T03:31:13;6.60;99.90
12452;DHT22;6291;48.924;12.204;2023-03-31T03:36:17;6.80;99.90
12452;DHT22;6291;48.924;12.204;2023-03-31T03:41:20;8.30;99.90
12452;DHT22;6291;48.924;12.204;2023-03-31T03:46:25;7.00;99.90
12452;DHT22;6291;48.924;12.204;2023-03-31T03:51:29;6.60;99.90
12452;DHT22;6291;48.924;12.204;2023-03-31T03:56:32;8.70;99.90
12452;DHT22;6291;48.924;12.204;2023-03-31T04:01:37;6.50;99.90
12452;DHT22;6291;48.924;12.204;2023-03-31T04:06:41;6.60;99.90
12452;DHT22;6291;48.924;12.204;2023-03-31T04:11:45;7.20;99.90
12452;DHT22;6291;48.924;12.204;2023-03-31T04:16:50;6.60;99.90
12452;DHT22;6291;48.924;12.204;2023-03-31T04:21:57;7.40;99.90
12452;DHT22;6291;48.924;12.204;2023-03-31T04:27:04;6.20;99.90
12452;DHT22;6291;48.924;12.204;2023-03-31T04:32:10;6.30;99.90
12452;DHT22;6291;48.924;12.204;2023-03-31T04:37:16;6.60;99.90
12452;DHT22;6291;48.924;12.204;2023-03-31T04:42:20;6.60;99.90
12452;DHT22;6291;48.924;12.204;2023-03-31T04:47:24;6.90;99.90
12452;DHT22;6291;48.924;12.204;2023-03-31T04:52:28;8.10;99.90
12452;DHT22;6291;48.924;12.204;2023-03-31T04:57:31;8.20;99.90
12452;DHT22;6291;48.924;12.204;2023-03-31T05:02:36;7.60;99.90
12452;DHT22;6291;48.924;12.204;2023-03-31T05:07:40;7.00;99.90
12452;DHT22;6291;48.924;12.204;2023-03-31T05:12:44;6.90;99.90
12452;DHT22;6291;48.924;12.204;2023-03-31T05:17:49;8.50;99.90
12452;DHT22;6291;48.924;12.204;2023-03-31T05:22:53;6.90;99.90
12452;DHT22;6291;48.924;12.204;2023-03-31T05:27:56;8.10;99.90
12452;DHT22;6291;48.924;12.204;2023-03-31T05:33:02;8.30;99.90
12452;DHT22;6291;48.924;12.204;2023-03-31T05:38:05;8.40;99.90
12452;DHT22;6291;48.924;12.204;2023-03-31T05:43:09;8.20;99.90
12452;DHT22;6291;48.924;12.204;2023-03-31T05:48:13;8.40;99.90
12452;DHT22;6291;48.924;12.204;2023-03-31T05:53:17;8.40;99.90
12452;DHT22;6291;48.924;12.204;2023-03-31T05:58:20;8.70;99.90
12452;DHT22;6291;48.924;12.204;2023-03-31T06:03:25;8.50;99.90
12452;DHT22;6291;48.924;12.204;2023-03-31T06:08:28;8.70;99.90
12452;DHT22;6291;48.924;12.204;2023-03-31T06:13:32;8.50;99.90
12452;DHT22;6291;48.924;12.204;2023-03-31T06:18:37;8.60;99.90
12452;DHT22;6291;48.924;12.204;2023-03-31T06:23:40;8.60;99.90
12452;DHT22;6291;48.924;12.204;2023-03-31T06:28:45;8.70;99.90
12452;DHT22;6291;48.924;12.204;2023-03-31T06:33:50;8.60;99.90
12452;DHT22;6291;48.924;12.204;2023-03-31T06:38:54;9.90;99.90
12452;DHT22;6291;48.924;12.204;2023-03-31T06:43:58;8.80;99.90
12452;DHT22;6291;48.924;12.204;2023-03-31T06:49:02;8.80;99.90
12452;DHT22;6291;48.924;12.204;2023-03-31T06:54:06;8.70;99.90
12452;DHT22;6291;48.924;12.204;2023-03-31T06:59:10;8.60;99.90
12452;DHT22;6291;48.924;12.204;2023-03-31T07:04:14;8.60;99.90
12452;DHT22;6291;48.924;12.204;2023-03-31T07:09:20;8.90;97.40
12452;DHT22;6291;48.924;12.204;2023-03-31T07:14:24;8.80;51.50
12452;DHT22;6291;48.924;12.204;2023-03-31T07:19:29;8.60;95.70
12452;DHT22;6291;48.924;12.204;2023-03-31T07:24:33;8.60;99.90
12452;DHT22;6291;48.924;12.204;2023-03-31T07:29:36;8.70;99.90
12452;DHT22;6291;48.924;12.204;2023-03-31T07:34:41;8.70;99.90
12452;DHT22;6291;48.924;12.204;2023-03-31T07:39:44;8.70;99.90
12452;DHT22;6291;48.924;12.204;2023-03-31T07:44:48;8.70;99.90
12452;DHT22;6291;48.924;12.204;2023-03-31T07:49:53;8.60;99.90
12452;DHT22;6291;48.924;12.204;2023-03-31T07:54:56;8.70;99.00
12452;DHT22;6291;48.924;12.204;2023-03-31T07:59:59;8.60;99.90
12452;DHT22;6291;48.924;12.204;2023-03-31T08:05:14;8.50;99.90
12452;DHT22;6291;48.924;12.204;2023-03-31T08:10:19;8.50;99.90
12452;DHT22;6291;48.924;12.204;2023-03-31T08:15:22;8.50;99.90
12452;DHT22;6291;48.924;12.204;2023-03-31T08:20:27;9.10;99.90
12452;DHT22;6291;48.924;12.204;2023-03-31T08:25:30;8.70;99.90
12452;DHT22;6291;48.924;12.204;2023-03-31T08:30:35;8.20;99.90
12452;DHT22;6291;48.924;12.204;2023-03-31T08:35:40;8.40;99.90
12452;DHT22;6291;48.924;12.204;2023-03-31T08:40:43;8.70;99.90
12452;DHT22;6291;48.924;12.204;2023-03-31T08:45:47;8.60;99.90
12452;DHT22;6291;48.924;12.204;2023-03-31T08:50:57;8.60;99.90
12452;DHT22;6291;48.924;12.204;2023-03-31T08:56:03;8.60;99.90
12452;DHT22;6291;48.924;12.204;2023-03-31T09:01:18;8.60;99.90
12452;DHT22;6291;48.924;12.204;2023-03-31T09:06:35;8.00;99.90
12452;DHT22;6291;48.924;12.204;2023-03-31T09:11:46;8.80;99.90
12452;DHT22;6291;48.924;12.204;2023-03-31T09:16:57;8.90;99.90
12452;DHT22;6291;48.924;12.204;2023-03-31T09:22:08;8.80;99.90
12452;DHT22;6291;48.924;12.204;2023-03-31T09:27:14;8.80;99.90
12452;DHT22;6291;48.924;12.204;2023-03-31T09:32:19;9.10;99.90
12452;DHT22;6291;48.924;12.204;2023-03-31T09:37:27;9.10;99.90
12452;DHT22;6291;48.924;12.204;2023-03-31T09:42:32;9.20;99.90
12452;DHT22;6291;48.924;12.204;2023-03-31T09:47:39;9.70;99.90
12452;DHT22;6291;48.924;12.204;2023-03-31T09:52:48;9.60;99.90
12452;DHT22;6291;48.924;12.204;2023-03-31T09:57:52;9.80;99.90
12452;DHT22;6291;48.924;12.204;2023-03-31T10:03:00;9.80;99.90
12452;DHT22;6291;48.924;12.204;2023-03-31T10:08:19;10.10;99.90
12452;DHT22;6291;48.924;12.204;2023-03-31T10:13:24;10.10;99.90
12452;DHT22;6291;48.924;12.204;2023-03-31T10:18:33;10.40;99.90
12452;DHT22;6291;48.924;12.204;2023-03-31T10:23:45;12.30;99.90
12452;DHT22;6291;48.924;12.204;2023-03-31T10:28:50;12.60;97.90
12452;DHT22;6291;48.924;12.204;2023-03-31T10:33:56;11.90;99.90
12452;DHT22;6291;48.924;12.204;2023-03-31T10:39:06;12.20;99.90
12452;DHT22;6291;48.924;12.204;2023-03-31T10:44:31;13.70;99.90
12452;DHT22;6291;48.924;12.204;2023-03-31T10:49:37;12.30;82.80
12452;DHT22;6291;48.924;12.204;2023-03-31T10:54:47;12.10;1.00
12452;DHT22;6291;48.924;12.204;2023-03-31T11:00:01;12.90;1.00
12452;DHT22;6291;48.924;12.204;2023-03-31T11:05:11;14.40;1.00
12452;DHT22;6291;48.924;12.204;2023-03-31T11:10:50;13.90;1.00
12452;DHT22;6291;48.924;12.204;2023-03-31T11:16:03;11.20;1.00
12452;DHT22;6291;48.924;12.204;2023-03-31T11:21:19;14.30;1.00
12452;DHT22;6291;48.924;12.204;2023-03-31T11:26:32;14.70;1.00
12452;DHT22;6291;48.924;12.204;2023-03-31T11:31:44;14.50;1.00
12452;DHT22;6291;48.924;12.204;2023-03-31T11:37:22;15.20;99.90
12452;DHT22;6291;48.924;12.204;2023-03-31T11:42:33;15.00;1.00
12452;DHT22;6291;48.924;12.204;2023-03-31T11:47:38;15.40;1.00
12452;DHT22;6291;48.924;12.204;2023-03-31T11:52:49;14.50;1.00
12452;DHT22;6291;48.924;12.204;2023-03-31T11:58:00;13.90;39.90
12452;DHT22;6291;48.924;12.204;2023-03-31T12:03:09;13.90;99.90
12452;DHT22;6291;48.924;12.204;2023-03-31T12:08:17;13.80;99.90
12452;DHT22;6291;48.924;12.204;2023-03-31T12:13:35;11.20;1.00
12452;DHT22;6291;48.924;12.204;2023-03-31T12:18:48;13.30;1.00
12452;DHT22;6291;48.924;12.204;2023-03-31T12:23:56;14.80;1.00
12452;DHT22;6291;48.924;12.204;2023-03-31T12:29:04;15.00;99.90
12452;DHT22;6291;48.924;12.204;2023-03-31T12:34:11;15.30;33.80
12452;DHT22;6291;48.924;12.204;2023-03-31T12:39:24;16.50;99.90
12452;DHT22;6291;48.924;12.204;2023-03-31T12:44:41;16.30;99.90
12452;DHT22;6291;48.924;12.204;2023-03-31T12:50:03;16.90;1.00
12452;DHT22;6291;48.924;12.204;2023-03-31T12:55:32;17.10;1.00
12452;DHT22;6291;48.924;12.204;2023-03-31T13:00:37;17.20;1.00
12452;DHT22;6291;48.924;12.204;2023-03-31T13:06:01;16.30;1.00
12452;DHT22;6291;48.924;12.204;2023-03-31T13:11:04;16.90;1.00
12452;DHT22;6291;48.924;12.204;2023-03-31T13:16:09;16.90;1.00
12452;DHT22;6291;48.924;12.204;2023-03-31T13:21:13;18.00;1.00
12452;DHT22;6291;48.924;12.204;2023-03-31T13:26:36;17.50;1.00
12452;DHT22;6291;48.924;12.204;2023-03-31T13:32:06;16.60;1.00
12452;DHT22;6291;48.924;12.204;2023-03-31T13:37:16;16.30;1.00
12452;DHT22;6291;48.924;12.204;2023-03-31T13:42:41;15.80;1.00
12452;DHT22;6291;48.924;12.204;2023-03-31T13:48:00;15.50;1.00
12452;DHT22;6291;48.924;12.204;2023-03-31T13:53:27;14.90;1.00
12452;DHT22;6291;48.924;12.204;2023-03-31T13:58:51;10.40;1.00
12452;DHT22;6291;48.924;12.204;2023-03-31T14:04:12;9.90;1.00
12452;DHT22;6291;48.924;12.204;2023-03-31T14:09:23;9.80;1.00
12452;DHT22;6291;48.924;12.204;2023-03-31T14:14:28;10.10;99.90
12452;DHT22;6291;48.924;12.204;2023-03-31T14:19:52;10.60;34.90
12452;DHT22;6291;48.924;12.204;2023-03-31T14:25:03;10.90;1.00
12452;DHT22;6291;48.924;12.204;2023-03-31T14:30:15;12.20;1.00
12452;DHT22;6291;48.924;12.204;2023-03-31T14:35:25;14.10;1.00
12452;DHT22;6291;48.924;12.204;2023-03-31T14:40:30;16.10;1.00
12452;DHT22;6291;48.924;12.204;2023-03-31T14:45:34;18.50;1.00
12452;DHT22;6291;48.924;12.204;2023-03-31T14:50:40;17.00;1.00
12452;DHT22;6291;48.924;12.204;2023-03-31T14:55:45;18.90;1.00
12452;DHT22;6291;48.924;12.204;2023-03-31T15:01:01;18.30;1.00
12452;DHT22;6291;48.924;12.204;2023-03-31T15:06:07;18.50;1.00
12452;DHT22;6291;48.924;12.204;2023-03-31T15:11:14;17.70;1.00
12452;DHT22;6291;48.924;12.204;2023-03-31T15:16:29;18.40;1.00
12452;DHT22;6291;48.924;12.204;2023-03-31T15:21:36;17.50;1.00
12452;DHT22;6291;48.924;12.204;2023-03-31T15:26:43;17.50;1.00
12452;DHT22;6291;48.924;12.204;2023-03-31T15:31:48;17.00;99.90
12452;DHT22;6291;48.924;12.204;2023-03-31T15:36:55;15.70;1.00
12452;DHT22;6291;48.924;12.204;2023-03-31T15:42:00;15.10;1.00
12452;DHT22;6291;48.924;12.204;2023-03-31T15:47:10;13.50;1.00
12452;DHT22;6291;48.924;12.204;2023-03-31T15:52:30;14.30;1.00
12452;DHT22;6291;48.924;12.204;2023-03-31T15:57:35;14.30;1.00
12452;DHT22;6291;48.924;12.204;2023-03-31T16:02:41;13.80;1.00
12452;DHT22;6291;48.924;12.204;2023-03-31T16:07:48;14.20;1.00
12452;DHT22;6291;48.924;12.204;2023-03-31T16:12:54;15.40;1.00
12452;DHT22;6291;48.924;12.204;2023-03-31T16:18:04;16.80;1.00
12452;DHT22;6291;48.924;12.204;2023-03-31T16:23:14;17.20;1.00
12452;DHT22;6291;48.924;12.204;2023-03-31T16:28:22;16.90;1.00
12452;DHT22;6291;48.924;12.204;2023-03-31T16:33:28;14.20;1.00
12452;DHT22;6291;48.924;12.204;2023-03-31T16:38:35;13.80;1.00
12452;DHT22;6291;48.924;12.204;2023-03-31T16:43:39;13.30;1.00
12452;DHT22;6291;48.924;12.204;2023-03-31T16:48:44;13.00;1.00
12452;DHT22;6291;48.924;12.204;2023-03-31T16:53:49;12.60;1.00
12452;DHT22;6291;48.924;12.204;2023-03-31T16:58:53;11.80;1.00
12452;DHT22;6291;48.924;12.204;2023-03-31T17:03:57;10.70;1.00
12452;DHT22;6291;48.924;12.204;2023-03-31T17:09:03;11.50;1.00
12452;DHT22;6291;48.924;12.204;2023-03-31T17:14:07;11.10;1.00
12452;DHT22;6291;48.924;12.204;2023-03-31T17:19:11;10.90;1.00
12452;DHT22;6291;48.924;12.204;2023-03-31T17:24:16;10.60;1.00
12452;DHT22;6291;48.924;12.204;2023-03-31T17:29:19;10.50;1.00
12452;DHT22;6291;48.924;12.204;2023-03-31T17:34:23;10.40;1.00
12452;DHT22;6291;48.924;12.204;2023-03-31T17:39:28;10.20;1.00
12452;DHT22;6291;48.924;12.204;2023-03-31T17:44:31;10.10;1.00
12452;DHT22;6291;48.924;12.204;2023-03-31T17:49:34;10.00;1.00
12452;DHT22;6291;48.924;12.204;2023-03-31T17:54:39;9.80;99.90
12452;DHT22;6291;48.924;12.204;2023-03-31T17:59:43;9.80;99.90
12452;DHT22;6291;48.924;12.204;2023-03-31T18:04:47;9.80;1.00
12452;DHT22;6291;48.924;12.204;2023-03-31T18:09:52;9.90;1.00
12452;DHT22;6291;48.924;12.204;2023-03-31T18:14:55;9.70;1.00
12452;DHT22;6291;48.924;12.204;2023-03-31T18:19:59;9.60;1.00
12452;DHT22;6291;48.924;12.204;2023-03-31T18:25:04;9.50;99.90
12452;DHT22;6291;48.924;12.204;2023-03-31T18:30:08;10.40;1.00
12452;DHT22;6291;48.924;12.204;2023-03-31T18:35:12;9.50;99.90
12452;DHT22;6291;48.924;12.204;2023-03-31T18:40:19;9.50;99.90
12452;DHT22;6291;48.924;12.204;2023-03-31T18:45:23;9.30;10.80
12452;DHT22;6291;48.924;12.204;2023-03-31T18:50:29;9.80;99.90
12452;DHT22;6291;48.924;12.204;2023-03-31T18:55:34;9.20;44.70
12452;DHT22;6291;48.924;12.204;2023-03-31T19:00:39;9.40;1.00
12452;DHT22;6291;48.924;12.204;2023-03-31T19:05:43;9.50;1.00
12452;DHT22;6291;48.924;12.204;2023-03-31T19:10:48;9.60;1.00
12452;DHT22;6291;48.924;12.204;2023-03-31T19:15:51;9.80;1.00
12452;DHT22;6291;48.924;12.204;2023-03-31T19:20:55;9.80;1.00
12452;DHT22;6291;48.924;12.204;2023-03-31T19:26:00;9.80;1.00
12452;DHT22;6291;48.924;12.204;2023-03-31T19:31:04;9.10;25.40
12452;DHT22;6291;48.924;12.204;2023-03-31T19:36:08;9.80;1.00
12452;DHT22;6291;48.924;12.204;2023-03-31T19:41:13;9.60;1.00
12452;DHT22;6291;48.924;12.204;2023-03-31T19:46:16;9.60;1.00
12452;DHT22;6291;48.924;12.204;2023-03-31T19:51:20;9.70;1.00
12452;DHT22;6291;48.924;12.204;2023-03-31T19:56:24;9.80;1.00
12452;DHT22;6291;48.924;12.204;2023-03-31T20:01:29;9.60;1.00
12452;DHT22;6291;48.924;12.204;2023-03-31T20:06:34;9.60;1.00
12452;DHT22;6291;48.924;12.204;2023-03-31T20:11:39;9.70;1.00
12452;DHT22;6291;48.924;12.204;2023-03-31T20:16:44;9.50;1.00
12452;DHT22;6291;48.924;12.204;2023-03-31T20:21:51;9.40;1.00
12452;DHT22;6291;48.924;12.204;2023-03-31T20:26:58;9.40;1.00
12452;DHT22;6291;48.924;12.204;2023-03-31T20:32:02;9.40;1.00
12452;DHT22;6291;48.924;12.204;2023-03-31T20:37:10;9.40;1.00
12452;DHT22;6291;48.924;12.204;2023-03-31T20:42:14;9.40;1.00
12452;DHT22;6291;48.924;12.204;2023-03-31T20:47:18;9.30;1.00
12452;DHT22;6291;48.924;12.204;2023-03-31T20:52:22;9.10;30.60
12452;DHT22;6291;48.924;12.204;2023-03-31T20:57:26;9.00;99.90
12452;DHT22;6291;48.924;12.204;2023-03-31T21:02:30;8.90;1.00
12452;DHT22;6291;48.924;12.204;2023-03-31T21:07:34;8.80;99.90
12452;DHT22;6291;48.924;12.204;2023-03-31T21:12:38;8.70;1.00
12452;DHT22;6291;48.924;12.204;2023-03-31T21:17:47;8.60;10.90
12452;DHT22;6291;48.924;12.204;2023-03-31T21:22:50;8.50;99.90
12452;DHT22;6291;48.924;12.204;2023-03-31T21:27:55;8.40;99.90
12452;DHT22;6291;48.924;12.204;2023-03-31T21:32:59;8.40;99.90
12452;DHT22;6291;48.924;12.204;2023-03-31T21:38:02;8.40;1.00
12452;DHT22;6291;48.924;12.204;2023-03-31T21:43:07;8.40;1.00
12452;DHT22;6291;48.924;12.204;2023-03-31T21:48:11;8.30;1.00
12452;DHT22;6291;48.924;12.204;2023-03-31T21:53:15;8.20;99.90
12452;DHT22;6291;48.924;12.204;2023-03-31T21:58:21;8.30;1.00
12452;DHT22;6291;48.924;12.204;2023-03-31T22:03:26;10.40;99.90
12452;DHT22;6291;48.924;12.204;2023-03-31T22:08:34;8.40;1.00
12452;DHT22;6291;48.924;12.204;2023-03-31T22:13:39;8.30;99.90
12452;DHT22;6291;48.924;12.204;2023-03-31T22:18:43;8.30;1.00
12452;DHT22;6291;48.924;12.204;2023-03-31T22:23:50;8.30;1.00
12452;DHT22;6291;48.924;12.204;2023-03-31T22:28:55;8.40;1.00
12452;DHT22;6291;48.924;12.204;2023-03-31T22:33:58;8.30;1.00
12452;DHT22;6291;48.924;12.204;2023-03-31T22:39:02;8.30;99.90
12452;DHT22;6291;48.924;12.204;2023-03-31T22:44:08;8.40;99.90
12452;DHT22;6291;48.924;12.204;2023-03-31T22:49:12;8.40;94.70
12452;DHT22;6291;48.924;12.204;2023-03-31T22:54:18;8.40;21.90
12452;DHT22;6291;48.924;12.204;2023-03-31T22:59:23;8.50;1.00
12452;DHT22;6291;48.924;12.204;2023-03-31T23:04:27;8.50;1.00
12452;DHT22;6291;48.924;12.204;2023-03-31T23:09:30;8.60;1.00
12452;DHT22;6291;48.924;12.204;2023-03-31T23:14:36;8.50;1.00
12452;DHT22;6291;48.924;12.204;2023-03-31T23:19:39;8.50;1.00
12452;DHT22;6291;48.924;12.204;2023-03-31T23:24:47;8.10;1.00
12452;DHT22;6291;48.924;12.204;2023-03-31T23:29:52;8.50;1.00
12452;DHT22;6291;48.924;12.204;2023-03-31T23:34:55;8.50;1.00
12452;DHT22;6291;48.924;12.204;2023-03-31T23:39:59;8.50;1.00
12452;DHT22;6291;48.924;12.204;2023-03-31T23:45:05;8.60;1.00
12452;DHT22;6291;48.924;12.204;2023-03-31T23:50:09;8.70;1.00
12452;DHT22;6291;48.924;12.204;2023-03-31T23:55:13;8.80;1.00
